createdAt,value
2018-08-22T00:00:17.319Z,4.20
2018-08-22T00:02:49.072Z,3.92
2018-08-22T00:05:20.367Z,3.52
2018-08-22T00:07:51.965Z,3.87
2018-08-22T00:10:23.347Z,4.12
2018-08-22T00:12:55.001Z,3.75
2018-08-22T00:15:26.363Z,4.15
2018-08-22T00:17:57.851Z,3.72
2018-08-22T00:20:29.256Z,3.95
2018-08-22T00:23:00.675Z,4.12
2018-08-22T00:25:31.907Z,3.92
2018-08-22T00:28:03.426Z,3.90
2018-08-22T00:30:34.901Z,3.72
2018-08-22T00:33:06.195Z,3.85
2018-08-22T00:35:37.587Z,3.33
2018-08-22T00:38:09.188Z,3.83
2018-08-22T00:40:40.702Z,4.15
2018-08-22T00:43:12.526Z,4.17
2018-08-22T00:45:43.943Z,3.80
2018-08-22T00:48:15.426Z,3.70
2018-08-22T00:50:46.665Z,4.45
2018-08-22T00:53:17.950Z,3.80
2018-08-22T00:55:49.427Z,3.12
2018-08-22T00:58:20.759Z,3.70
2018-08-22T01:00:52.069Z,3.40
2018-08-22T01:03:23.515Z,4.45
2018-08-22T01:05:54.739Z,3.55
2018-08-22T01:08:26.275Z,3.50
2018-08-22T01:10:57.856Z,3.52
2018-08-22T01:13:29.379Z,7.58
2018-08-22T01:16:00.712Z,4.20
2018-08-22T01:18:32.061Z,3.25
2018-08-22T01:21:03.344Z,3.58
2018-08-22T01:23:34.957Z,3.45
2018-08-22T01:26:06.424Z,3.77
2018-08-22T01:28:37.861Z,3.70
2018-08-22T01:31:09.440Z,3.98
2018-08-22T01:33:41.062Z,3.58
2018-08-22T01:36:12.746Z,3.45
2018-08-22T01:38:44.195Z,3.37
2018-08-22T01:41:15.686Z,6.03
2018-08-22T01:43:47.173Z,3.67
2018-08-22T01:46:18.501Z,4.90
2018-08-22T01:48:49.992Z,5.03
2018-08-22T01:51:21.449Z,4.17
2018-08-22T01:53:52.728Z,3.30
2018-08-22T01:56:24.763Z,3.50
2018-08-22T01:58:56.092Z,4.28
2018-08-22T02:01:27.558Z,3.52
2018-08-22T02:03:58.915Z,3.92
2018-08-22T02:06:30.463Z,4.97
2018-08-22T02:09:02.009Z,3.75
2018-08-22T02:11:33.395Z,3.67
2018-08-22T02:14:04.861Z,3.70
2018-08-22T02:16:36.651Z,3.60
2018-08-22T02:19:08.727Z,4.40
2018-08-22T02:21:40.098Z,3.25
2018-08-22T02:24:11.995Z,3.40
2018-08-22T02:26:43.619Z,3.87
2018-08-22T02:29:15.271Z,6.65
2018-08-22T02:31:46.752Z,3.08
2018-08-22T02:34:18.448Z,3.08
2018-08-22T02:36:49.996Z,3.60
2018-08-22T02:39:21.351Z,7.20
2018-08-22T02:41:52.663Z,3.65
2018-08-22T02:44:23.939Z,3.22
2018-08-22T02:46:55.622Z,3.45
2018-08-22T02:49:26.844Z,4.80
2018-08-22T02:51:58.253Z,4.30
2018-08-22T02:54:29.834Z,3.60
2018-08-22T02:57:01.330Z,5.42
2018-08-22T02:59:32.796Z,5.80
2018-08-22T03:02:05.044Z,3.33
2018-08-22T03:04:36.664Z,3.67
2018-08-22T03:07:08.056Z,3.80
2018-08-22T03:09:39.556Z,3.60
2018-08-22T03:12:10.893Z,4.65
2018-08-22T03:14:42.469Z,4.87
2018-08-22T03:17:13.691Z,4.75
2018-08-22T03:19:45.238Z,3.52
2018-08-22T03:22:17.371Z,3.75
2018-08-22T03:24:48.795Z,3.72
2018-08-22T03:27:20.312Z,3.77
2018-08-22T03:29:52.316Z,4.67
2018-08-22T03:32:23.851Z,3.40
2018-08-22T03:34:55.200Z,5.62
2018-08-22T03:37:26.502Z,4.15
2018-08-22T03:39:57.742Z,4.22
2018-08-22T03:42:29.261Z,5.05
2018-08-22T03:45:00.533Z,4.65
2018-08-22T03:47:32.029Z,3.90
2018-08-22T03:50:03.451Z,4.95
2018-08-22T03:52:34.919Z,6.22
2018-08-22T03:55:06.244Z,5.35
2018-08-22T03:57:38.103Z,3.87
2018-08-22T04:00:10.393Z,4.50
2018-08-22T04:02:42.052Z,5.00
2018-08-22T04:05:13.414Z,5.50
2018-08-22T04:07:44.716Z,4.17
2018-08-22T04:10:16.739Z,4.37
2018-08-22T04:12:48.232Z,4.30
2018-08-22T04:15:19.700Z,5.37
2018-08-22T04:17:51.016Z,5.33
2018-08-22T04:20:22.546Z,4.53
2018-08-22T04:22:53.839Z,4.45
2018-08-22T04:25:25.278Z,4.78
2018-08-22T04:27:56.802Z,3.87
2018-08-22T04:30:28.292Z,4.37
2018-08-22T04:32:59.706Z,5.20
2018-08-22T04:35:31.185Z,5.12
2018-08-22T04:38:02.966Z,4.37
2018-08-22T04:40:34.447Z,3.40
2018-08-22T04:43:05.807Z,4.05
2018-08-22T04:45:37.366Z,3.72
2018-08-22T04:48:08.915Z,5.87
2018-08-22T04:50:40.417Z,4.67
2018-08-22T04:53:12.149Z,9.30
2018-08-22T04:55:43.516Z,11.73
2018-08-22T04:58:15.078Z,7.65
2018-08-22T05:00:46.904Z,4.65
2018-08-22T05:03:18.532Z,4.95
2018-08-22T05:05:49.707Z,7.83
2018-08-22T05:08:21.269Z,5.62
2018-08-22T05:10:52.816Z,5.78
2018-08-22T05:13:24.475Z,7.28
2018-08-22T05:15:55.888Z,7.37
2018-08-22T05:18:27.299Z,6.90
2018-08-22T05:20:58.626Z,5.42
2018-08-22T05:23:30.212Z,5.28
2018-08-22T05:26:01.815Z,18.45
2018-08-22T05:28:33.530Z,12.53
2018-08-22T05:31:05.023Z,4.55
2018-08-22T05:33:36.514Z,7.53
2018-08-22T05:36:08.650Z,6.62
2018-08-22T05:38:40.475Z,4.50
2018-08-22T05:41:12.300Z,5.00
2018-08-22T05:43:43.805Z,5.85
2018-08-22T05:46:15.213Z,4.75
2018-08-22T05:48:46.432Z,5.17
2018-08-22T05:51:17.930Z,6.00
2018-08-22T05:53:49.598Z,8.18
2018-08-22T05:56:20.981Z,5.03
2018-08-22T05:58:52.505Z,4.55
2018-08-22T06:01:24.198Z,3.70
2018-08-22T06:03:55.708Z,4.15
2018-08-22T06:06:27.146Z,4.35
2018-08-22T06:08:58.771Z,5.67
2018-08-22T06:11:30.393Z,5.10
2018-08-22T06:14:01.919Z,7.03
2018-08-22T06:16:33.149Z,4.80
2018-08-22T06:19:04.783Z,4.85
2018-08-22T06:21:36.215Z,4.55
2018-08-22T06:24:07.692Z,6.17
2018-08-22T06:26:39.368Z,4.40
2018-08-22T06:29:10.585Z,4.53
2018-08-22T06:31:41.902Z,5.75
2018-08-22T06:34:13.387Z,7.37
2018-08-22T06:36:44.780Z,4.72
2018-08-22T06:39:15.948Z,7.87
2018-08-22T06:41:47.474Z,7.65
2018-08-22T06:44:18.798Z,14.03
2018-08-22T06:46:50.423Z,5.40
2018-08-22T06:49:22.168Z,5.83
2018-08-22T06:51:54.162Z,8.95
2018-08-22T06:54:25.628Z,6.97
2018-08-22T06:56:57.001Z,7.65
2018-08-22T06:59:28.394Z,5.20
2018-08-22T07:01:59.870Z,6.25
2018-08-22T07:04:31.168Z,6.53
2018-08-22T07:07:02.379Z,5.37
2018-08-22T07:09:33.844Z,5.30
2018-08-22T07:12:05.330Z,6.22
2018-08-22T07:14:36.813Z,5.03
2018-08-22T07:17:08.268Z,6.10
2018-08-22T07:19:39.842Z,7.05
2018-08-22T07:22:11.398Z,6.67
2018-08-22T07:24:43.067Z,5.67
2018-08-22T07:27:14.698Z,4.53
2018-08-22T07:29:46.278Z,6.55
2018-08-22T07:32:17.653Z,5.03
2018-08-22T07:34:49.202Z,5.45
2018-08-22T07:37:20.895Z,5.60
2018-08-22T07:39:52.468Z,5.12
2018-08-22T07:42:23.864Z,7.17
2018-08-22T07:44:55.508Z,5.28
2018-08-22T07:47:27.148Z,5.50
2018-08-22T07:49:58.901Z,5.30
2018-08-22T07:52:30.179Z,6.10
2018-08-22T07:55:01.786Z,5.95
2018-08-22T07:57:33.220Z,5.87
2018-08-22T08:00:04.712Z,7.90
2018-08-22T08:02:36.102Z,6.20
2018-08-22T08:05:08.241Z,7.92
2018-08-22T08:07:39.726Z,8.55
2018-08-22T08:10:17.755Z,6.62
2018-08-22T08:12:49.306Z,6.20
2018-08-22T08:15:20.913Z,6.00
2018-08-22T08:17:52.536Z,6.08
2018-08-22T08:20:23.972Z,6.78
2018-08-22T08:22:55.594Z,10.30
2018-08-22T08:25:27.223Z,8.88
2018-08-22T08:27:58.620Z,6.53
2018-08-22T08:30:30.302Z,6.35
2018-08-22T08:33:01.752Z,6.00
2018-08-22T08:35:33.310Z,6.92
2018-08-22T08:38:04.615Z,6.72
2018-08-22T08:40:36.273Z,5.83
2018-08-22T08:43:07.550Z,5.62
2018-08-22T08:45:40.410Z,5.90
2018-08-22T08:48:12.393Z,6.53
2018-08-22T08:50:43.772Z,6.55
2018-08-22T08:53:15.161Z,7.55
2018-08-22T08:55:46.719Z,6.37
2018-08-22T08:58:17.991Z,6.00
2018-08-22T09:00:49.361Z,13.85
2018-08-22T09:03:20.765Z,7.83
2018-08-22T09:05:52.142Z,6.00
2018-08-22T09:08:23.559Z,6.03
2018-08-22T09:10:55.165Z,14.58
2018-08-22T09:13:26.484Z,6.50
2018-08-22T09:15:58.172Z,9.55
2018-08-22T09:18:29.804Z,11.33
2018-08-22T09:21:01.156Z,6.15
2018-08-22T09:23:32.833Z,7.05
2018-08-22T09:26:04.357Z,4.75
2018-08-22T09:28:35.994Z,6.25
2018-08-22T09:31:07.362Z,5.33
2018-08-22T09:33:38.892Z,4.97
2018-08-22T09:36:10.079Z,5.45
2018-08-22T09:38:41.613Z,6.35
2018-08-22T09:41:13.036Z,6.67
2018-08-22T09:43:44.415Z,4.67
2018-08-22T09:46:15.592Z,7.60
2018-08-22T09:48:46.833Z,5.28
2018-08-22T09:51:18.185Z,7.33
2018-08-22T09:53:49.772Z,6.97
2018-08-22T09:56:21.359Z,5.97
2018-08-22T09:58:52.872Z,5.70
2018-08-22T10:01:28.331Z,5.10
2018-08-22T10:04:01.691Z,7.55
2018-08-22T10:06:43.972Z,6.37
2018-08-22T10:09:20.448Z,5.92
2018-08-22T10:11:51.901Z,5.47
2018-08-22T10:14:23.307Z,4.80
2018-08-22T10:16:54.670Z,4.97
2018-08-22T10:19:26.012Z,4.97
2018-08-22T10:21:57.660Z,8.80
2018-08-22T10:24:29.116Z,11.22
2018-08-22T10:27:00.581Z,5.95
2018-08-22T10:29:31.850Z,5.47
2018-08-22T10:32:03.322Z,5.75
2018-08-22T10:34:34.663Z,5.12
2018-08-22T10:37:06.286Z,6.12
2018-08-22T10:39:37.753Z,4.42
2018-08-22T10:42:09.139Z,4.83
2018-08-22T10:44:41.410Z,5.22
2018-08-22T10:47:13.003Z,6.92
2018-08-22T10:49:44.594Z,6.67
2018-08-22T10:52:16.101Z,6.53
2018-08-22T10:54:47.378Z,7.58
2018-08-22T10:57:18.733Z,5.12
2018-08-22T10:59:50.345Z,5.33
2018-08-22T11:02:21.702Z,5.37
2018-08-22T11:04:53.267Z,5.08
2018-08-22T11:07:24.545Z,4.65
2018-08-22T11:09:56.302Z,5.12
2018-08-22T11:12:27.839Z,6.35
2018-08-22T11:14:59.228Z,6.87
2018-08-22T11:17:30.599Z,5.30
2018-08-22T11:20:02.038Z,5.12
2018-08-22T11:22:49.568Z,5.33
2018-08-22T11:25:37.053Z,5.50
2018-08-22T11:28:24.147Z,5.35
2018-08-22T11:31:11.191Z,7.85
2018-08-22T11:33:58.225Z,5.83
2018-08-22T11:36:26.990Z,5.20
2018-08-22T11:38:58.405Z,5.33
2018-08-22T11:41:30.399Z,4.92
2018-08-22T11:44:01.941Z,5.22
2018-08-22T11:46:33.489Z,6.35
2018-08-22T11:49:04.851Z,6.30
2018-08-22T11:51:36.038Z,6.03
2018-08-22T11:54:07.388Z,8.73
2018-08-22T11:56:38.900Z,6.10
2018-08-22T11:59:10.442Z,6.17
2018-08-22T12:01:41.994Z,8.80
2018-08-22T12:04:13.436Z,5.40
2018-08-22T12:06:45.056Z,6.75
2018-08-22T12:09:16.545Z,5.60
2018-08-22T12:11:47.965Z,9.38
2018-08-22T12:14:19.600Z,8.88
2018-08-22T12:16:51.098Z,5.55
2018-08-22T12:19:22.604Z,7.28
2018-08-22T12:21:54.014Z,7.03
2018-08-22T12:24:25.517Z,5.62
2018-08-22T12:26:56.995Z,6.83
2018-08-22T12:29:28.535Z,5.72
2018-08-22T12:32:00.181Z,5.55
2018-08-22T12:34:31.665Z,5.50
2018-08-22T12:37:02.998Z,6.12
2018-08-22T12:39:34.613Z,6.03
2018-08-22T12:42:06.160Z,7.78
2018-08-22T12:44:37.387Z,6.35
2018-08-22T12:47:08.912Z,6.42
2018-08-22T12:49:40.510Z,9.85
2018-08-22T12:52:11.758Z,5.45
2018-08-22T12:54:43.207Z,5.83
2018-08-22T12:57:14.884Z,6.20
2018-08-22T12:59:46.072Z,6.72
2018-08-22T13:02:17.523Z,9.48
2018-08-22T13:04:48.868Z,5.87
2018-08-22T13:07:20.259Z,5.95
2018-08-22T13:09:52.156Z,8.30
2018-08-22T13:12:23.595Z,6.00
2018-08-22T13:14:54.818Z,8.53
2018-08-22T13:17:26.050Z,6.40
2018-08-22T13:19:57.659Z,8.53
2018-08-22T13:22:29.001Z,5.83
2018-08-22T13:25:00.717Z,6.05
2018-08-22T13:27:32.117Z,5.50
2018-08-22T13:30:03.669Z,8.80
2018-08-22T13:32:34.888Z,8.13
2018-08-22T13:35:06.519Z,6.95
2018-08-22T13:37:37.802Z,7.22
2018-08-22T13:40:08.759Z,9.48
2018-08-22T13:42:40.083Z,11.30
2018-08-22T13:45:11.762Z,8.90
2018-08-22T13:47:43.249Z,8.90
2018-08-22T13:50:14.732Z,10.10
2018-08-22T13:52:46.160Z,7.50
2018-08-22T13:55:18.243Z,7.72
2018-08-22T13:57:49.585Z,8.55
2018-08-22T14:00:20.859Z,7.03
2018-08-22T14:02:52.264Z,6.65
2018-08-22T14:05:23.634Z,8.90
2018-08-22T14:07:55.189Z,6.60
2018-08-22T14:10:26.568Z,6.03
2018-08-22T14:12:58.148Z,9.30
2018-08-22T14:15:29.320Z,17.95
2018-08-22T14:18:00.811Z,7.25
2018-08-22T14:20:32.421Z,11.90
2018-08-22T14:23:03.895Z,6.70
2018-08-22T14:25:35.429Z,8.98
2018-08-22T14:28:06.743Z,10.20
2018-08-22T14:30:38.047Z,10.03
2018-08-22T14:33:09.837Z,9.15
2018-08-22T14:35:41.218Z,6.72
2018-08-22T14:38:12.820Z,9.40
2018-08-22T14:40:44.323Z,8.73
2018-08-22T14:43:15.590Z,9.08
2018-08-22T14:45:46.774Z,10.05
2018-08-22T14:48:18.131Z,7.45
2018-08-22T14:50:49.448Z,10.70
2018-08-22T14:53:20.953Z,7.00
2018-08-22T14:55:52.543Z,7.12
2018-08-22T14:58:24.086Z,9.18
2018-08-22T15:00:55.222Z,9.45
2018-08-22T15:03:26.696Z,7.15
2018-08-22T15:05:58.047Z,7.67
2018-08-22T15:08:29.428Z,9.60
2018-08-22T15:11:00.827Z,7.15
2018-08-22T15:13:32.126Z,8.38
2018-08-22T15:16:03.771Z,8.58
2018-08-22T15:18:34.993Z,8.70
2018-08-22T15:21:06.759Z,7.85
2018-08-22T15:23:38.439Z,10.38
2018-08-22T15:26:09.873Z,8.95
2018-08-22T15:28:41.304Z,6.70
2018-08-22T15:31:12.625Z,9.53
2018-08-22T15:33:44.275Z,7.90
2018-08-22T15:36:15.793Z,9.00
2018-08-22T15:38:47.134Z,10.15
2018-08-22T15:41:19.060Z,7.75
2018-08-22T15:43:50.656Z,24.00
2018-08-22T15:46:22.215Z,11.18
2018-08-22T15:48:54.118Z,7.80
2018-08-22T15:51:25.688Z,11.25
2018-08-22T15:54:14.238Z,6.83
2018-08-22T15:56:45.808Z,7.75
2018-08-22T15:59:18.616Z,10.05
2018-08-22T16:01:50.048Z,8.75
2018-08-22T16:04:21.370Z,8.05
2018-08-22T16:06:58.203Z,9.45
2018-08-22T16:09:31.514Z,8.25
2018-08-22T16:12:02.908Z,10.08
2018-08-22T16:14:34.352Z,10.28
2018-08-22T16:17:05.701Z,9.13
2018-08-22T16:19:37.286Z,10.48
2018-08-22T16:22:09.609Z,7.53
2018-08-22T16:24:42.784Z,9.60
2018-08-22T16:27:14.476Z,8.23
2018-08-22T16:29:45.908Z,10.20
2018-08-22T16:32:17.296Z,7.33
2018-08-22T16:34:48.904Z,13.50
2018-08-22T16:37:20.458Z,8.05
2018-08-22T16:39:51.807Z,9.00
2018-08-22T16:42:27.196Z,8.60
2018-08-22T16:44:58.523Z,8.20
2018-08-22T16:47:34.003Z,6.62
2018-08-22T16:50:07.158Z,7.62
2018-08-22T16:52:39.317Z,6.90
2018-08-22T16:55:20.162Z,9.70
2018-08-22T16:57:52.235Z,9.45
2018-08-22T17:00:36.096Z,9.18
2018-08-22T17:03:08.642Z,7.72
2018-08-22T17:05:39.961Z,9.95
2018-08-22T17:08:11.197Z,10.40
2018-08-22T17:10:55.067Z,8.85
2018-08-22T17:14:03.915Z,15.90
2018-08-22T17:16:35.408Z,22.90
2018-08-22T17:19:06.858Z,15.58
2018-08-22T17:21:38.255Z,14.78
2018-08-22T17:24:09.537Z,13.90
2018-08-22T17:26:40.922Z,7.55
2018-08-22T17:29:12.776Z,10.72
2018-08-22T17:31:45.571Z,8.30
2018-08-22T17:34:17.143Z,7.47
2018-08-22T17:37:03.448Z,13.08
2018-08-22T17:39:35.136Z,12.30
2018-08-22T17:42:06.507Z,9.35
2018-08-22T17:44:38.173Z,8.93
2018-08-22T17:47:09.512Z,12.75
2018-08-22T17:49:41.035Z,19.65
2018-08-22T17:52:13.293Z,15.45
2018-08-22T17:54:44.989Z,7.80
2018-08-22T17:57:23.588Z,13.60
2018-08-22T17:59:57.338Z,8.00
2018-08-22T18:02:28.651Z,11.63
2018-08-22T18:05:03.112Z,14.47
2018-08-22T18:07:34.322Z,10.45
2018-08-22T18:10:06.012Z,13.22
2018-08-22T18:12:37.207Z,8.70
2018-08-22T18:15:08.948Z,12.58
2018-08-22T18:17:40.680Z,7.20
2018-08-22T18:20:12.142Z,10.50
2018-08-22T18:22:43.714Z,13.00
2018-08-22T18:25:15.391Z,11.35
2018-08-22T18:27:47.855Z,9.68
2018-08-22T18:30:19.448Z,9.68
2018-08-22T18:32:51.085Z,13.35
2018-08-22T18:35:22.546Z,10.25
2018-08-22T18:37:54.285Z,16.70
2018-08-22T18:40:27.767Z,8.03
2018-08-22T18:43:02.465Z,12.90
2018-08-22T18:45:34.125Z,14.33
2018-08-22T18:48:07.732Z,9.33
2018-08-22T18:50:39.420Z,8.45
2018-08-22T18:53:10.985Z,8.20
2018-08-22T18:55:42.627Z,15.58
2018-08-22T18:58:14.143Z,11.35
2018-08-22T19:00:45.652Z,9.68
2018-08-22T19:03:17.217Z,10.03
2018-08-22T19:05:48.707Z,7.22
2018-08-22T19:08:20.079Z,9.05
2018-08-22T19:10:52.372Z,10.45
2018-08-22T19:13:25.085Z,9.40
2018-08-22T19:16:01.139Z,14.80
2018-08-22T19:18:32.555Z,9.38
2018-08-22T19:21:06.369Z,8.80
2018-08-22T19:23:38.063Z,8.15
2018-08-22T19:26:09.850Z,9.00
2018-08-22T19:28:56.562Z,8.08
2018-08-22T19:31:27.985Z,9.00
2018-08-22T19:34:00.035Z,10.15
2018-08-22T19:36:31.596Z,11.03
2018-08-22T19:39:03.178Z,12.23
2018-08-22T19:41:34.880Z,9.70
2018-08-22T19:44:07.326Z,14.40
2018-08-22T19:46:38.863Z,12.65
2018-08-22T19:49:10.623Z,8.60
2018-08-22T19:51:42.108Z,9.68
2018-08-22T19:54:13.669Z,14.78
2018-08-22T19:56:45.263Z,14.28
2018-08-22T19:59:16.730Z,8.70
2018-08-22T20:01:48.192Z,12.07
2018-08-22T20:04:19.740Z,12.55
2018-08-22T20:06:51.274Z,14.33
2018-08-22T20:09:23.979Z,11.48
2018-08-22T20:11:55.450Z,10.70
2018-08-22T20:14:27.208Z,10.30
2018-08-22T20:16:58.945Z,14.45
2018-08-22T20:19:34.532Z,11.97
2018-08-22T20:22:06.177Z,11.22
2018-08-22T20:24:37.666Z,8.50
2018-08-22T20:27:09.695Z,11.68
2018-08-22T20:29:41.164Z,8.40
2018-08-22T20:32:17.111Z,9.28
2018-08-22T20:34:48.957Z,10.53
2018-08-22T20:37:20.741Z,12.30
2018-08-22T20:39:57.235Z,10.05
2018-08-22T20:42:29.962Z,13.35
2018-08-22T20:45:01.473Z,11.18
2018-08-22T20:47:33.508Z,9.13
2018-08-22T20:50:05.573Z,12.05
2018-08-22T20:52:38.240Z,8.98
2018-08-22T20:55:10.156Z,9.50
2018-08-22T20:57:42.402Z,11.65
2018-08-22T21:00:14.464Z,9.45
2018-08-22T21:02:47.605Z,10.53
2018-08-22T21:05:19.174Z,8.73
2018-08-22T21:07:50.994Z,13.88
2018-08-22T21:10:23.084Z,12.55
2018-08-22T21:12:55.232Z,8.38
2018-08-22T21:15:27.208Z,8.00
2018-08-22T21:17:59.298Z,10.10
